Time;durP1;ratioP1;P1;durP2;ratioP2;P2;SDS_P1;SDS_P2;PMS_P1;PMS_P2;Temp;Humidity;BMP_temperature;BMP_pressure;BME280_temperature;BME280_humidity;BME280_pressure;Samples;Min_cycle;Max_cycle;Signal;HPM_P1;HPM_P2
2021/11/06 00:31:51;;;;;;;8.10;4.37;;;9.20;98.30;;;;;;5118547;23;20923;-82
2021/11/06 00:33:56;;;;;;;9.77;4.07;;;9.20;98.30;;;;;;5145622;23;20455;-82
2021/11/06 00:35:59;;;;;;;5.17;3.00;;;9.20;98.30;;;;;;5145361;23;20425;-82
2021/11/06 00:38:02;;;;;;;11.87;5.20;;;9.30;98.30;;;;;;5138013;23;20430;-83
2021/11/06 00:40:07;;;;;;;6.40;3.60;;;9.20;98.30;;;;;;5138323;23;20432;-82
2021/11/06 00:42:10;;;;;;;9.50;3.70;;;9.20;98.30;;;;;;5138099;23;20913;-82
2021/11/06 00:44:13;;;;;;;5.57;3.30;;;9.30;98.30;;;;;;5146913;23;20568;-82
2021/11/06 00:46:16;;;;;;;9.53;3.50;;;9.30;98.30;;;;;;5138898;23;20428;-82
2021/11/06 00:48:19;;;;;;;5.50;2.70;;;9.30;98.30;;;;;;5146956;23;20818;-82
2021/11/06 00:50:23;;;;;;;11.90;3.80;;;9.30;98.30;;;;;;5138199;23;20425;-82
2021/11/06 00:52:26;;;;;;;7.50;3.00;;;9.30;98.30;;;;;;5137988;23;20503;-83
2021/11/06 00:54:29;;;;;;;6.53;3.53;;;9.30;98.30;;;;;;5146531;23;20448;-82
2021/11/06 00:56:32;;;;;;;5.40;3.60;;;9.30;98.30;;;;;;5137898;23;20433;-82
2021/11/06 00:58:35;;;;;;;14.53;4.17;;;9.20;98.30;;;;;;5146226;23;20429;-82
2021/11/06 01:00:38;;;;;;;6.67;3.20;;;9.30;98.30;;;;;;5137502;23;20440;-82
2021/11/06 01:02:42;;;;;;;6.33;2.90;;;9.30;98.30;;;;;;5163980;22;20423;-82
2021/11/06 01:04:45;;;;;;;6.47;3.47;;;9.30;98.30;;;;;;5191417;22;20505;-82
2021/11/06 01:06:49;;;;;;;9.77;3.40;;;9.30;98.30;;;;;;5191266;22;20427;-83
2021/11/06 01:08:52;;;;;;;8.37;3.60;;;9.20;98.30;;;;;;5191164;22;20427;-82
2021/11/06 01:10:55;;;;;;;5.00;3.10;;;9.20;98.30;;;;;;5191818;22;20432;-83
2021/11/06 01:12:58;;;;;;;10.83;3.47;;;9.20;98.30;;;;;;5199165;22;20760;-82
2021/11/06 01:15:01;;;;;;;6.87;3.53;;;9.20;98.30;;;;;;5191052;22;20447;-83
2021/11/06 01:17:05;;;;;;;10.87;4.37;;;9.20;98.30;;;;;;5191148;22;20430;-82
2021/11/06 01:19:08;;;;;;;7.43;3.80;;;9.10;98.30;;;;;;5190917;22;20431;-83
2021/11/06 01:21:10;;;;;;;9.07;4.07;;;9.20;98.30;;;;;;5199510;22;20518;-82
2021/11/06 01:23:15;;;;;;;4.20;3.30;;;9.10;98.30;;;;;;5190822;22;20430;-82
2021/11/06 01:25:18;;;;;;;5.93;3.63;;;9.10;98.30;;;;;;5199451;22;20431;-82
2021/11/06 01:27:21;;;;;;;7.83;4.43;;;9.10;98.30;;;;;;5190830;22;20795;-83
2021/11/06 01:29:24;;;;;;;4.40;3.53;;;9.10;98.30;;;;;;5199554;22;20469;-82
2021/11/06 01:31:31;;;;;;;12.03;5.97;;;9.10;98.30;;;;;;5191304;22;20419;-83
2021/11/06 01:33:34;;;;;;;8.20;3.20;;;9.10;98.30;;;;;;5191158;22;20435;-82
2021/11/06 01:35:37;;;;;;;5.73;3.70;;;9.20;98.30;;;;;;5190763;22;20426;-83
2021/11/06 01:37:40;;;;;;;7.57;3.83;;;9.20;98.30;;;;;;5191673;22;20905;-83
2021/11/06 01:39:47;;;;;;;8.77;4.00;;;9.20;98.30;;;;;;5198102;22;20697;-82
2021/11/06 01:46:45;;;;;;;11.77;3.30;;;9.20;98.30;;;;;;5206062;22;20566;-80
2021/11/06 01:49:03;;;;;;;7.13;3.57;;;9.20;98.30;;;;;;5203001;22;20430;-80
2021/11/06 01:58:01;;;;;;;9.13;3.77;;;9.10;98.30;;;;;;5168565;22;20412;-80
2021/11/06 02:00:08;;;;;;;4.03;3.20;;;9.10;98.30;;;;;;5170487;22;20474;-79
2021/11/06 02:02:12;;;;;;;8.47;3.70;;;9.10;98.30;;;;;;5175689;22;20519;-79
2021/11/06 02:04:16;;;;;;;7.10;3.97;;;9.10;98.30;;;;;;5175704;22;20451;-80
2021/11/06 02:06:20;;;;;;;6.47;3.40;;;9.10;98.30;;;;;;5175692;22;20420;-80
2021/11/06 02:08:23;;;;;;;10.20;4.63;;;9.00;98.30;;;;;;5170702;23;20435;-80
2021/11/06 02:10:26;;;;;;;5.20;3.53;;;9.00;98.30;;;;;;5171515;22;20424;-80
2021/11/06 02:12:29;;;;;;;7.30;3.80;;;9.00;98.30;;;;;;5178964;22;20454;-79
2021/11/06 02:14:32;;;;;;;9.47;3.50;;;9.00;98.30;;;;;;5171678;22;20462;-80
2021/11/06 02:16:36;;;;;;;4.37;3.53;;;9.00;98.30;;;;;;5171457;22;20432;-80
2021/11/06 02:18:39;;;;;;;4.83;3.60;;;9.00;98.30;;;;;;5178838;22;20424;-80
2021/11/06 02:20:46;;;;;;;7.63;4.07;;;9.00;98.30;;;;;;5170998;23;20787;-80
2021/11/06 02:22:49;;;;;;;10.53;4.40;;;9.00;98.30;;;;;;5179353;22;21007;-80
2021/11/06 02:24:53;;;;;;;9.70;4.63;;;9.00;98.30;;;;;;5179150;23;20428;-79
2021/11/06 02:26:56;;;;;;;7.30;4.10;;;9.00;98.30;;;;;;5169943;22;20435;-80
2021/11/06 02:29:02;;;;;;;17.47;4.47;;;9.00;98.30;;;;;;5170120;23;20435;-80
2021/11/06 02:31:05;;;;;;;5.43;4.10;;;9.00;98.30;;;;;;5169945;22;20466;-80
2021/11/06 02:33:08;;;;;;;12.10;4.47;;;9.00;98.30;;;;;;5178702;22;21003;-79
2021/11/06 02:35:12;;;;;;;6.40;3.97;;;9.00;98.30;;;;;;5170325;22;20432;-80
2021/11/06 02:37:16;;;;;;;7.80;4.00;;;9.00;98.30;;;;;;5169956;23;20462;-80
2021/11/06 02:39:19;;;;;;;8.67;4.03;;;9.00;98.30;;;;;;5170933;22;20439;-80
2021/11/06 02:41:22;;;;;;;5.73;3.87;;;9.00;98.30;;;;;;5178352;23;20430;-80
2021/11/06 02:43:25;;;;;;;7.33;4.53;;;9.00;98.30;;;;;;5178981;22;20443;-79
2021/11/06 02:45:28;;;;;;;9.60;3.93;;;9.00;98.30;;;;;;5166886;23;20447;-79
2021/11/06 02:47:31;;;;;;;4.93;3.50;;;9.00;98.30;;;;;;5174300;22;20423;-80
2021/11/06 02:49:35;;;;;;;5.40;3.33;;;9.00;98.30;;;;;;5167035;23;20793;-80
2021/11/06 02:51:39;;;;;;;8.93;3.50;;;9.00;98.30;;;;;;5166851;22;20439;-80
2021/11/06 02:53:44;;;;;;;9.53;4.50;;;9.00;98.30;;;;;;5176981;22;20440;-79
2021/11/06 02:55:48;;;;;;;8.57;4.00;;;9.00;98.30;;;;;;5169220;22;20904;-80
2021/11/06 02:57:51;;;;;;;7.70;3.67;;;9.00;98.30;;;;;;5175791;23;20455;-80
2021/11/06 02:59:54;;;;;;;7.40;4.23;;;9.00;98.30;;;;;;5176084;22;20995;-80
2021/11/06 03:01:57;;;;;;;7.57;3.87;;;9.00;98.30;;;;;;5176024;22;20526;-79
2021/11/06 03:04:00;;;;;;;7.47;3.97;;;9.00;98.30;;;;;;5168452;22;20482;-79
2021/11/06 03:06:03;;;;;;;4.70;3.83;;;9.00;98.30;;;;;;5176750;23;20478;-79
2021/11/06 03:08:06;;;;;;;4.93;3.83;;;8.90;98.30;;;;;;5168017;22;20667;-79
2021/11/06 03:10:12;;;;;;;10.13;5.53;;;8.90;98.30;;;;;;5167992;23;20482;-80
2021/11/06 03:12:16;;;;;;;6.93;3.63;;;8.90;98.30;;;;;;5168316;22;20456;-80
2021/11/06 03:14:21;;;;;;;7.03;4.30;;;8.90;98.30;;;;;;5168658;23;20438;-79
2021/11/06 03:16:24;;;;;;;7.50;4.50;;;8.80;98.30;;;;;;5169377;23;20461;-80
2021/11/06 03:18:27;;;;;;;6.63;4.70;;;8.80;98.30;;;;;;5177615;22;20420;-80
2021/11/06 03:20:30;;;;;;;9.40;4.60;;;8.80;98.30;;;;;;5177070;22;20458;-80
2021/11/06 03:22:33;;;;;;;13.33;4.90;;;8.90;98.30;;;;;;5169479;22;20774;-80
2021/11/06 03:24:37;;;;;;;4.73;4.03;;;8.80;98.30;;;;;;5177921;22;20435;-80
2021/11/06 03:26:41;;;;;;;7.50;4.80;;;8.80;98.30;;;;;;5177292;23;20522;-80
2021/11/06 03:28:44;;;;;;;6.73;4.97;;;8.80;98.30;;;;;;5177564;22;20438;-80
2021/11/06 03:30:47;;;;;;;7.90;4.23;;;8.80;98.30;;;;;;5176790;22;20424;-79
2021/11/06 03:32:50;;;;;;;15.30;5.47;;;8.80;98.30;;;;;;5177824;22;20527;-80
2021/11/06 03:34:54;;;;;;;7.00;5.77;;;8.80;98.30;;;;;;5179411;22;20432;-80
2021/11/06 03:36:57;;;;;;;7.93;5.10;;;8.70;98.30;;;;;;5179644;22;20419;-80
2021/11/06 03:39:00;;;;;;;9.50;5.03;;;8.70;98.30;;;;;;5179198;22;20434;-80
2021/11/06 03:41:03;;;;;;;9.23;5.33;;;8.70;98.30;;;;;;5170696;22;20423;-80
2021/11/06 03:43:08;;;;;;;9.90;6.33;;;8.70;98.30;;;;;;5171623;22;20446;-79
2021/11/06 03:45:11;;;;;;;7.87;5.07;;;8.70;98.30;;;;;;5178539;22;20442;-80
2021/11/06 03:47:14;;;;;;;8.53;5.20;;;8.70;98.30;;;;;;5178638;22;20426;-80
2021/11/06 03:49:17;;;;;;;10.40;5.93;;;8.70;98.30;;;;;;5177911;22;20797;-80
2021/11/06 03:51:21;;;;;;;8.20;5.70;;;8.70;98.30;;;;;;5177643;22;20481;-80
2021/11/06 03:53:24;;;;;;;13.80;5.90;;;8.70;98.30;;;;;;5169247;22;20452;-79
2021/11/06 03:55:27;;;;;;;11.63;5.33;;;8.70;98.30;;;;;;5169494;22;20455;-79
2021/11/06 03:57:30;;;;;;;12.47;5.80;;;8.70;98.30;;;;;;5168797;23;20434;-79
2021/11/06 03:59:35;;;;;;;9.87;6.50;;;8.70;98.30;;;;;;5170072;22;20432;-80
2021/11/06 04:01:38;;;;;;;10.17;5.60;;;8.70;98.30;;;;;;5178103;22;20416;-79
2021/11/06 04:03:41;;;;;;;7.53;4.60;;;8.70;98.30;;;;;;5169912;22;20426;-79
2021/11/06 04:05:44;;;;;;;7.17;5.30;;;8.70;98.30;;;;;;5170207;22;20459;-80
2021/11/06 04:07:47;;;;;;;6.13;5.53;;;8.70;98.30;;;;;;5176773;22;20535;-80
2021/11/06 04:09:50;;;;;;;9.30;5.40;;;8.70;98.30;;;;;;5169242;22;20461;-80
2021/11/06 04:11:53;;;;;;;8.30;5.90;;;8.70;98.30;;;;;;5168909;22;20485;-79
2021/11/06 04:13:56;;;;;;;8.70;5.77;;;8.70;98.30;;;;;;5177494;22;20446;-80
2021/11/06 04:16:00;;;;;;;11.80;6.37;;;8.80;98.30;;;;;;5168784;22;20439;-80
2021/11/06 04:18:03;;;;;;;8.83;5.40;;;8.70;98.30;;;;;;5177608;22;20443;-80
2021/11/06 04:20:08;;;;;;;9.00;5.30;;;8.70;98.30;;;;;;5177149;22;20794;-80
2021/11/06 04:22:11;;;;;;;8.73;5.30;;;8.70;98.30;;;;;;5177568;22;20523;-80
2021/11/06 04:24:13;;;;;;;9.40;5.43;;;8.70;98.30;;;;;;5168747;23;20516;-80
2021/11/06 04:26:16;;;;;;;11.23;5.80;;;8.70;98.30;;;;;;5166675;22;20447;-80
2021/11/06 04:28:19;;;;;;;6.53;4.80;;;8.70;98.30;;;;;;5167989;23;20454;-80
2021/11/06 04:30:22;;;;;;;7.03;4.90;;;8.70;98.30;;;;;;5168372;22;20789;-80
2021/11/06 04:32:27;;;;;;;22.40;5.83;;;8.70;98.30;;;;;;5168967;22;20448;-80
2021/11/06 04:34:30;;;;;;;7.33;5.97;;;8.70;98.30;;;;;;5168886;22;20826;-79
2021/11/06 04:36:33;;;;;;;9.27;5.03;;;8.70;98.30;;;;;;5176465;22;20470;-79
2021/11/06 04:38:36;;;;;;;8.40;5.30;;;8.70;98.30;;;;;;5175993;22;20427;-79
2021/11/06 04:40:39;;;;;;;7.53;5.53;;;8.70;98.30;;;;;;5176279;23;20430;-79
2021/11/06 04:42:43;;;;;;;8.70;5.90;;;8.70;98.30;;;;;;5176214;22;20443;-80
2021/11/06 04:44:46;;;;;;;11.27;6.90;;;8.70;98.30;;;;;;5168373;22;20428;-79
2021/11/06 04:46:49;;;;;;;14.10;7.50;;;8.80;98.30;;;;;;5168183;23;20761;-80
2021/11/06 04:48:53;;;;;;;7.73;6.77;;;8.80;98.30;;;;;;5168051;22;20437;-79
2021/11/06 04:50:56;;;;;;;9.87;6.73;;;8.70;98.30;;;;;;5167969;22;20436;-80
2021/11/06 04:52:59;;;;;;;8.80;6.57;;;8.80;98.30;;;;;;5176206;22;20489;-79
2021/11/06 04:55:03;;;;;;;7.90;6.37;;;8.80;98.30;;;;;;5177010;22;20538;-80
2021/11/06 04:57:06;;;;;;;10.93;7.13;;;8.70;98.30;;;;;;5167575;22;20439;-80
2021/11/06 04:59:10;;;;;;;10.73;7.87;;;8.80;98.30;;;;;;5168940;22;20432;-80
2021/11/06 05:01:12;;;;;;;8.57;7.10;;;8.80;98.30;;;;;;5168379;22;20424;-80
2021/11/06 05:03:15;;;;;;;9.80;7.90;;;8.80;98.30;;;;;;5167875;22;20455;-79
2021/11/06 05:05:20;;;;;;;9.97;8.90;;;8.80;98.30;;;;;;5168486;22;20922;-80
2021/11/06 05:07:24;;;;;;;9.53;8.03;;;8.70;98.30;;;;;;5168644;22;20442;-80
2021/11/06 05:09:27;;;;;;;16.30;7.90;;;8.80;98.30;;;;;;5168054;22;20481;-80
2021/11/06 05:11:30;;;;;;;8.90;7.20;;;8.80;98.30;;;;;;5167486;22;20437;-80
2021/11/06 05:13:33;;;;;;;11.93;8.47;;;8.70;98.30;;;;;;5167888;22;20451;-80
2021/11/06 05:15:36;;;;;;;11.60;7.27;;;8.70;98.30;;;;;;5177518;22;20416;-80
2021/11/06 05:17:39;;;;;;;11.30;8.30;;;8.70;98.30;;;;;;5178139;22;20428;-80
2021/11/06 05:19:42;;;;;;;11.50;9.50;;;8.70;98.30;;;;;;5168524;22;20427;-80
2021/11/06 05:21:47;;;;;;;9.90;8.50;;;8.70;98.30;;;;;;5167447;22;20428;-80
2021/11/06 05:23:50;;;;;;;13.33;7.73;;;8.70;98.30;;;;;;5167976;23;20449;-80
2021/11/06 05:25:53;;;;;;;7.80;6.13;;;8.70;98.30;;;;;;5168137;22;20428;-80
2021/11/06 05:27:56;;;;;;;9.93;8.93;;;8.70;98.30;;;;;;5177509;22;20430;-80
2021/11/06 05:30:00;;;;;;;9.30;8.10;;;8.70;98.30;;;;;;5182274;22;20446;-80
2021/11/06 05:32:03;;;;;;;16.47;10.80;;;8.70;98.30;;;;;;5171297;22;20470;-80
2021/11/06 05:34:07;;;;;;;16.73;7.63;;;8.70;98.30;;;;;;5169716;22;20457;-80
2021/11/06 05:36:10;;;;;;;15.83;9.67;;;8.60;98.30;;;;;;5179039;22;20510;-80
2021/11/06 05:38:14;;;;;;;14.00;9.53;;;8.60;98.30;;;;;;5169924;22;20428;-80
2021/11/06 05:40:17;;;;;;;11.83;9.30;;;8.60;98.30;;;;;;5179623;22;20416;-80
2021/11/06 05:42:21;;;;;;;14.60;10.90;;;8.60;98.30;;;;;;5178763;22;20450;-80
2021/11/06 05:44:23;;;;;;;23.40;10.63;;;8.60;98.30;;;;;;5170478;23;21055;-80
2021/11/06 05:46:26;;;;;;;16.60;9.30;;;8.60;98.30;;;;;;5170594;22;20506;-80
2021/11/06 05:48:29;;;;;;;16.00;11.27;;;8.60;98.30;;;;;;5178540;22;20896;-80
2021/11/06 05:50:32;;;;;;;13.00;10.70;;;8.60;98.30;;;;;;5178147;22;20425;-80
2021/11/06 05:52:36;;;;;;;15.63;11.30;;;8.60;98.30;;;;;;5178303;22;20472;-80
2021/11/06 05:54:40;;;;;;;19.10;11.43;;;8.60;98.30;;;;;;5170240;22;20506;-81
2021/11/06 05:56:43;;;;;;;13.67;11.67;;;8.60;98.30;;;;;;5178602;22;20428;-80
2021/11/06 05:58:46;;;;;;;14.93;11.73;;;8.60;98.30;;;;;;5169234;22;20905;-81
2021/11/06 06:00:49;;;;;;;15.17;10.13;;;8.60;98.30;;;;;;5170452;22;20923;-81
2021/11/06 06:02:52;;;;;;;13.73;11.80;;;8.60;98.30;;;;;;5178303;22;20436;-80
2021/11/06 06:04:55;;;;;;;14.93;11.73;;;8.60;98.30;;;;;;5179332;22;20869;-80
2021/11/06 06:06:58;;;;;;;15.10;12.00;;;8.60;98.30;;;;;;5170846;23;20458;-80
2021/11/06 06:09:01;;;;;;;14.30;11.03;;;8.60;98.30;;;;;;5170903;22;20515;-80
2021/11/06 06:11:05;;;;;;;14.27;11.90;;;8.60;98.30;;;;;;5169937;22;20430;-80
2021/11/06 06:13:08;;;;;;;15.10;12.10;;;8.60;98.30;;;;;;5170199;22;20483;-80
2021/11/06 06:15:12;;;;;;;13.10;11.40;;;8.60;98.30;;;;;;5170557;22;20474;-80
2021/11/06 06:17:15;;;;;;;15.30;12.03;;;8.60;98.30;;;;;;5170009;22;20435;-81
2021/11/06 06:19:20;;;;;;;14.20;11.87;;;8.60;98.30;;;;;;5170798;22;20895;-81
2021/11/06 06:21:23;;;;;;;14.47;11.40;;;8.60;98.30;;;;;;5170393;22;20427;-80
2021/11/06 06:23:26;;;;;;;14.40;11.90;;;8.60;98.30;;;;;;5169940;22;20984;-80
2021/11/06 06:25:31;;;;;;;16.77;11.93;;;8.60;98.30;;;;;;5178356;23;20416;-80
2021/11/06 06:27:37;;;;;;;14.20;11.37;;;8.60;98.30;;;;;;5169726;22;20435;-80
2021/11/06 06:29:41;;;;;;;16.10;11.47;;;8.60;98.30;;;;;;5177423;22;20822;-81
2021/11/06 06:31:44;;;;;;;16.63;10.40;;;8.60;98.30;;;;;;5174921;22;20821;-80
2021/11/06 06:33:46;;;;;;;13.00;11.27;;;8.60;98.30;;;;;;5179320;22;20447;-81
2021/11/06 06:35:49;;;;;;;17.00;11.57;;;8.60;98.30;;;;;;5172729;23;20447;-81
2021/11/06 06:37:52;;;;;;;14.60;12.63;;;8.60;98.30;;;;;;5171810;22;20438;-81
2021/11/06 06:39:55;;;;;;;13.97;11.60;;;8.60;98.30;;;;;;5180428;22;20801;-81
2021/11/06 06:41:58;;;;;;;15.63;11.40;;;8.60;98.30;;;;;;5170030;22;20832;-80
2021/11/06 06:44:03;;;;;;;13.60;11.10;;;8.60;98.30;;;;;;5178832;22;20438;-81
2021/11/06 06:46:06;;;;;;;13.90;11.47;;;8.70;98.30;;;;;;5178115;22;20500;-81
2021/11/06 06:48:09;;;;;;;19.57;11.90;;;8.70;98.30;;;;;;5170298;23;20459;-81
2021/11/06 06:50:13;;;;;;;16.53;12.50;;;8.70;98.30;;;;;;5169790;22;20515;-81
2021/11/06 06:52:17;;;;;;;13.77;9.57;;;8.70;98.30;;;;;;5169754;22;20455;-80
2021/11/06 06:54:20;;;;;;;19.60;11.30;;;8.70;98.30;;;;;;5169880;22;20427;-80
2021/11/06 06:56:23;;;;;;;17.33;12.10;;;8.70;98.30;;;;;;5169476;22;20445;-81
2021/11/06 06:58:26;;;;;;;12.70;10.83;;;8.70;98.30;;;;;;5177597;22;20428;-81
2021/11/06 07:00:31;;;;;;;18.73;11.47;;;8.80;98.30;;;;;;5169612;22;20437;-80
2021/11/06 07:02:34;;;;;;;15.97;11.10;;;8.80;98.30;;;;;;5170863;22;20448;-80
2021/11/06 07:04:38;;;;;;;18.90;14.47;;;8.80;98.30;;;;;;5169374;22;20432;-80
2021/11/06 07:06:47;;;;;;;15.30;12.27;;;8.80;98.30;;;;;;5169402;22;20521;-81
2021/11/06 07:08:49;;;;;;;13.47;11.63;;;8.80;98.30;;;;;;5178341;23;20442;-80
2021/11/06 07:10:52;;;;;;;15.80;11.80;;;8.80;98.30;;;;;;5169966;22;20495;-80
2021/11/06 07:12:55;;;;;;;18.10;12.77;;;8.70;98.30;;;;;;5169168;22;20537;-80
2021/11/06 07:14:58;;;;;;;12.67;10.33;;;8.70;98.30;;;;;;5177918;22;20416;-80
2021/11/06 07:17:03;;;;;;;21.50;15.03;;;8.80;98.30;;;;;;5177183;22;20940;-80
2021/11/06 07:19:06;;;;;;;19.13;14.77;;;8.80;98.30;;;;;;5169195;22;20459;-80
2021/11/06 07:21:09;;;;;;;21.60;14.33;;;8.80;98.30;;;;;;5177281;22;20420;-80
2021/11/06 07:23:13;;;;;;;16.60;14.37;;;8.90;98.30;;;;;;5178321;22;20833;-80
2021/11/06 07:25:16;;;;;;;19.07;14.37;;;8.90;98.30;;;;;;5168998;22;20437;-81
2021/11/06 07:27:19;;;;;;;22.10;15.27;;;8.80;98.30;;;;;;5168098;22;20431;-81
2021/11/06 07:29:22;;;;;;;21.47;16.47;;;8.90;98.30;;;;;;5176143;22;20428;-81
2021/11/06 07:31:25;;;;;;;19.80;16.03;;;8.90;98.30;;;;;;5168599;22;20438;-81
2021/11/06 07:33:29;;;;;;;22.00;16.70;;;8.90;98.30;;;;;;5169968;22;20449;-80
2021/11/06 07:35:32;;;;;;;17.43;13.00;;;8.90;98.30;;;;;;5169203;22;20520;-80
2021/11/06 07:37:36;;;;;;;20.53;16.90;;;8.90;98.30;;;;;;5174965;22;20510;-81
2021/11/06 07:39:39;;;;;;;22.90;15.60;;;8.90;98.30;;;;;;5178764;22;20451;-81
2021/11/06 07:41:42;;;;;;;24.70;17.43;;;8.90;98.30;;;;;;5178146;22;20444;-80
2021/11/06 07:43:45;;;;;;;30.70;17.67;;;8.90;98.30;;;;;;5178082;22;20731;-81
2021/11/06 07:45:48;;;;;;;25.13;17.10;;;9.00;98.30;;;;;;5176760;22;20424;-81
2021/11/06 07:47:50;;;;;;;27.43;16.77;;;9.00;98.30;;;;;;5168936;22;20494;-81
2021/11/06 07:50:01;;;;;;;19.43;14.80;;;9.00;98.30;;;;;;5176357;22;20433;-81
2021/11/06 07:52:05;;;;;;;31.57;17.10;;;9.00;98.30;;;;;;5176577;22;20445;-81
2021/11/06 07:54:08;;;;;;;22.47;15.90;;;9.00;98.30;;;;;;5177676;22;20722;-82
2021/11/06 07:56:13;;;;;;;21.73;16.27;;;9.00;98.30;;;;;;5168808;22;20489;-82
2021/11/06 07:58:16;;;;;;;30.47;18.17;;;9.00;98.30;;;;;;5171424;22;20428;-82
2021/11/06 08:00:25;;;;;;;24.20;16.83;;;9.00;98.30;;;;;;5177575;23;20740;-82
2021/11/06 08:02:28;;;;;;;31.70;18.53;;;9.10;98.30;;;;;;5177217;22;20445;-81
2021/11/06 08:04:35;;;;;;;29.40;18.47;;;9.00;98.30;;;;;;5177420;22;20429;-81
2021/11/06 08:06:40;;;;;;;25.53;16.97;;;9.00;98.30;;;;;;5176487;22;20423;-81
2021/11/06 08:08:43;;;;;;;27.83;19.40;;;9.00;98.30;;;;;;5168365;23;20968;-81
2021/11/06 08:10:46;;;;;;;26.00;21.47;;;9.00;98.30;;;;;;5177593;23;20451;-81
2021/11/06 08:12:49;;;;;;;29.43;23.03;;;9.10;98.30;;;;;;5176457;22;20943;-81
2021/11/06 08:14:58;;;;;;;34.80;19.90;;;9.10;98.30;;;;;;5176490;22;20428;-81
2021/11/06 08:17:02;;;;;;;28.90;19.40;;;9.10;98.30;;;;;;5176481;22;20451;-81
2021/11/06 08:19:05;;;;;;;29.07;18.97;;;9.10;98.30;;;;;;5176629;22;20427;-81
2021/11/06 08:21:08;;;;;;;32.27;19.37;;;9.10;98.30;;;;;;5176657;22;20420;-81
2021/11/06 08:23:13;;;;;;;28.83;18.10;;;9.10;98.30;;;;;;5177367;22;20952;-81
2021/11/06 08:25:17;;;;;;;31.17;20.57;;;9.20;98.30;;;;;;5177715;22;20833;-81
2021/11/06 08:27:21;;;;;;;28.40;21.40;;;9.20;98.30;;;;;;5176741;22;20451;-81
2021/11/06 08:29:24;;;;;;;29.10;20.80;;;9.20;98.30;;;;;;5168818;22;20513;-81
2021/11/06 08:31:27;;;;;;;26.10;18.03;;;9.20;98.30;;;;;;5178368;23;20424;-81
2021/11/06 08:33:32;;;;;;;33.43;21.30;;;9.20;98.30;;;;;;5177482;22;20996;-80
2021/11/06 08:35:35;;;;;;;29.30;21.00;;;9.20;98.30;;;;;;5177660;22;20506;-81
2021/11/06 08:37:38;;;;;;;31.17;19.37;;;9.20;98.30;;;;;;5176473;22;20773;-81
2021/11/06 08:39:43;;;;;;;34.93;20.03;;;9.20;98.30;;;;;;5177185;22;20420;-81
2021/11/06 08:41:46;;;;;;;36.70;20.23;;;9.20;98.30;;;;;;5168908;22;20435;-80
2021/11/06 08:43:49;;;;;;;33.13;23.63;;;9.20;98.30;;;;;;5182140;22;20509;-80
2021/11/06 08:45:52;;;;;;;39.90;26.50;;;9.20;98.30;;;;;;5170302;23;20444;-80
2021/11/06 08:47:56;;;;;;;25.40;17.40;;;9.20;98.30;;;;;;5178357;22;20485;-80
2021/11/06 08:49:59;;;;;;;38.40;23.77;;;9.20;98.30;;;;;;5169474;22;20474;-80
2021/11/06 08:52:03;;;;;;;34.80;23.30;;;9.20;98.30;;;;;;5177643;22;20525;-80
2021/11/06 08:54:06;;;;;;;31.50;22.33;;;9.20;98.30;;;;;;5169527;22;20434;-80
2021/11/06 08:56:10;;;;;;;39.37;25.17;;;9.30;98.30;;;;;;5176836;22;20450;-80
2021/11/06 08:58:13;;;;;;;31.60;19.90;;;9.30;98.30;;;;;;5177318;22;20424;-81
2021/11/06 09:00:25;;;;;;;37.40;20.03;;;9.30;98.30;;;;;;5177340;22;20428;-80
2021/11/06 09:02:28;;;;;;;33.97;22.73;;;9.30;98.30;;;;;;5178152;22;20813;-80
2021/11/06 09:04:32;;;;;;;35.10;23.40;;;9.40;98.30;;;;;;5177493;22;20433;-80
2021/11/06 09:06:35;;;;;;;34.57;24.13;;;9.40;98.30;;;;;;5177887;22;20419;-80
2021/11/06 09:08:42;;;;;;;40.73;25.47;;;9.40;98.30;;;;;;5177000;22;20521;-79
2021/11/06 09:10:46;;;;;;;35.90;23.33;;;9.40;98.30;;;;;;5169133;23;20429;-81
2021/11/06 09:12:50;;;;;;;43.90;26.37;;;9.50;98.30;;;;;;5177008;22;20445;-80
2021/11/06 09:14:53;;;;;;;42.40;29.03;;;9.50;98.30;;;;;;5169092;22;20922;-79
2021/11/06 09:16:58;;;;;;;38.23;24.70;;;9.50;98.30;;;;;;5177458;22;20450;-80
2021/11/06 09:19:02;;;;;;;37.90;24.97;;;9.60;98.30;;;;;;5168754;23;20425;-80
2021/11/06 09:21:06;;;;;;;38.23;26.97;;;9.60;98.30;;;;;;5176381;22;20519;-80
2021/11/06 09:23:08;;;;;;;36.70;25.17;;;9.60;98.30;;;;;;5167140;22;20477;-79
2021/11/06 09:25:13;;;;;;;39.60;26.17;;;9.60;98.30;;;;;;5173244;23;20425;-79
2021/11/06 09:27:16;;;;;;;35.97;24.77;;;9.60;98.30;;;;;;5166584;23;20472;-79
2021/11/06 09:29:28;;;;;;;40.30;25.00;;;9.60;98.30;;;;;;5167909;23;20437;-79
2021/11/06 09:31:39;;;;;;;38.63;25.60;;;9.50;98.30;;;;;;5175977;22;20512;-79
2021/11/06 09:33:44;;;;;;;37.83;26.53;;;9.50;98.30;;;;;;5176742;22;20945;-79
2021/11/06 09:35:48;;;;;;;26.27;18.93;;;9.60;98.30;;;;;;5169100;22;20429;-79
2021/11/06 09:37:57;;;;;;;41.63;27.23;;;9.50;98.30;;;;;;5168719;22;20457;-79
2021/11/06 09:40:00;;;;;;;46.53;28.30;;;9.50;98.30;;;;;;5176578;22;20766;-79
2021/11/06 09:42:04;;;;;;;39.37;26.97;;;9.50;98.30;;;;;;5169038;22;20454;-79
2021/11/06 09:44:10;;;;;;;38.80;26.07;;;9.60;98.30;;;;;;5169020;23;20926;-80
2021/11/06 09:46:15;;;;;;;35.10;22.10;;;9.60;98.30;;;;;;5177321;23;20978;-79
2021/11/06 09:48:18;;;;;;;42.00;30.03;;;9.60;98.30;;;;;;5170727;23;20417;-79
2021/11/06 09:50:24;;;;;;;40.27;25.77;;;9.60;98.30;;;;;;5171522;23;20490;-79
2021/11/06 09:52:27;;;;;;;38.27;25.83;;;9.70;98.30;;;;;;5168179;22;20454;-79
2021/11/06 09:54:30;;;;;;;38.33;25.83;;;9.70;98.30;;;;;;5170794;23;20985;-79
2021/11/06 09:56:33;;;;;;;39.00;25.30;;;9.70;98.30;;;;;;5172849;22;20432;-79
2021/11/06 09:58:38;;;;;;;33.20;22.40;;;9.70;98.30;;;;;;5172424;23;20434;-79
2021/11/06 10:00:41;;;;;;;35.33;25.13;;;9.70;98.30;;;;;;5172653;23;20437;-79
2021/11/06 10:02:54;;;;;;;36.63;23.47;;;9.70;98.30;;;;;;5174985;22;20933;-79
2021/11/06 10:04:57;;;;;;;35.40;28.67;;;9.80;98.30;;;;;;5178722;22;20441;-79
2021/11/06 10:07:13;;;;;;;37.93;29.27;;;9.80;98.30;;;;;;5168074;23;20425;-79
2021/11/06 10:09:17;;;;;;;38.03;24.40;;;9.80;98.30;;;;;;5168550;23;20774;-79
2021/11/06 10:11:22;;;;;;;39.50;30.20;;;9.80;98.30;;;;;;5168250;22;20425;-79
2021/11/06 10:13:25;;;;;;;40.10;27.07;;;9.80;98.30;;;;;;5168343;22;20444;-79
2021/11/06 10:15:46;;;;;;;40.13;25.77;;;9.80;98.30;;;;;;5167308;22;20432;-79
2021/11/06 10:17:50;;;;;;;37.03;25.87;;;9.80;98.30;;;;;;5168628;23;20436;-79
2021/11/06 10:19:54;;;;;;;35.30;24.73;;;9.90;98.30;;;;;;5169304;23;20932;-79
2021/11/06 10:22:06;;;;;;;33.93;24.60;;;9.90;98.30;;;;;;5169420;22;20442;-79
2021/11/06 10:24:16;;;;;;;39.20;24.97;;;9.90;98.30;;;;;;5168192;23;20412;-79
2021/11/06 10:26:29;;;;;;;34.97;22.60;;;9.90;98.30;;;;;;5177122;23;20409;-79
2021/11/06 10:28:34;;;;;;;41.43;26.53;;;9.90;98.30;;;;;;5168435;23;20743;-79
2021/11/06 10:30:39;;;;;;;35.67;23.93;;;9.90;98.30;;;;;;5167508;23;20455;-79
2021/11/06 10:32:45;;;;;;;33.70;22.23;;;9.90;98.30;;;;;;5168650;22;20995;-79
2021/11/06 10:34:52;;;;;;;28.30;21.30;;;9.90;98.30;;;;;;5177062;23;20418;-79
2021/11/06 10:36:57;;;;;;;37.93;27.97;;;10.00;98.30;;;;;;5168617;23;20432;-80
2021/11/06 10:39:04;;;;;;;37.87;24.93;;;9.90;98.30;;;;;;5168441;23;20433;-79
2021/11/06 10:41:08;;;;;;;38.70;26.47;;;9.90;98.30;;;;;;5169037;22;20435;-79
2021/11/06 10:43:14;;;;;;;35.37;25.00;;;9.90;98.30;;;;;;5177565;22;20946;-79
2021/11/06 10:45:21;;;;;;;32.23;21.90;;;10.00;98.30;;;;;;5168854;22;20436;-79
2021/11/06 10:47:24;;;;;;;41.03;26.17;;;10.00;98.30;;;;;;5168294;22;20827;-79
2021/11/06 10:49:33;;;;;;;39.47;24.93;;;10.00;98.30;;;;;;5168568;23;20415;-79
2021/11/06 10:51:39;;;;;;;36.90;22.23;;;10.00;98.30;;;;;;5168433;22;20433;-79
2021/11/06 10:53:45;;;;;;;40.67;25.30;;;10.00;98.30;;;;;;5169381;23;20424;-79
2021/11/06 10:55:48;;;;;;;36.37;27.43;;;10.00;98.30;;;;;;5170937;23;20773;-79
2021/11/06 10:57:51;;;;;;;36.90;27.00;;;10.00;98.30;;;;;;5166071;23;20444;-79
2021/11/06 11:00:07;;;;;;;32.00;25.60;;;10.10;98.30;;;;;;5174507;23;20501;-79
2021/11/06 11:02:24;;;;;;;39.17;25.80;;;10.10;98.30;;;;;;5166909;22;20460;-80
2021/11/06 11:04:36;;;;;;;36.80;21.33;;;10.10;98.30;;;;;;5167839;23;20419;-79
2021/11/06 11:06:45;;;;;;;33.70;25.23;;;10.10;98.30;;;;;;5167406;23;20440;-79
2021/11/06 11:08:50;;;;;;;40.87;24.90;;;10.10;98.30;;;;;;5174534;22;20424;-79
2021/11/06 11:10:53;;;;;;;40.17;26.00;;;10.00;98.30;;;;;;5175597;22;20429;-79
2021/11/06 11:13:11;;;;;;;36.70;24.80;;;10.00;98.30;;;;;;5166700;22;20834;-79
2021/11/06 11:15:25;;;;;;;36.57;24.60;;;10.00;98.30;;;;;;5175859;23;20409;-80
2021/11/06 11:17:41;;;;;;;39.20;25.97;;;10.00;98.30;;;;;;5174728;22;20424;-79
2021/11/06 11:19:46;;;;;;;32.17;23.80;;;10.00;98.30;;;;;;5175608;23;20426;-79
2021/11/06 11:21:50;;;;;;;39.27;23.90;;;10.00;98.30;;;;;;5167281;22;20491;-79
2021/11/06 11:23:56;;;;;;;37.33;25.30;;;9.90;98.30;;;;;;5168123;22;20434;-79
2021/11/06 11:26:01;;;;;;;48.00;26.80;;;10.00;98.30;;;;;;5140369;23;20434;-79